createdAt,value
2022-09-20T06:27:40.731Z,94.40
2022-09-20T06:30:16.523Z,94.80
2022-09-20T06:32:58.599Z,94.90
2022-09-20T06:35:34.551Z,94.90
2022-09-20T06:38:34.933Z,95.00
2022-09-20T06:41:22.594Z,95.00
2022-09-20T06:43:52.261Z,95.00
2022-09-20T06:46:20.827Z,95.00
2022-09-20T06:48:51.296Z,95.00
2022-09-20T06:51:19.787Z,95.00
2022-09-20T06:53:48.148Z,95.10
2022-09-20T06:56:20.534Z,95.10
2022-09-20T06:58:48.790Z,95.10
2022-09-20T07:01:29.306Z,95.10
2022-09-20T07:03:58.665Z,95.10
2022-09-20T07:06:28.786Z,95.10
2022-09-20T07:08:56.970Z,95.20
2022-09-20T07:11:25.310Z,95.20
2022-09-20T07:13:54.865Z,95.20
2022-09-20T07:16:26.527Z,95.20
2022-09-20T07:18:56.752Z,95.20
2022-09-20T07:21:25.744Z,95.20
2022-09-20T07:23:54.055Z,95.30
2022-09-20T07:26:26.531Z,95.30
2022-09-20T07:28:55.671Z,95.30
2022-09-20T07:31:27.962Z,95.40
2022-09-20T07:33:56.685Z,95.30
2022-09-20T07:36:25.296Z,95.40
2022-09-20T07:38:54.382Z,95.30
2022-09-20T07:41:23.833Z,95.30
2022-09-20T07:43:52.563Z,95.30
2022-09-20T07:46:24.321Z,95.40
2022-09-20T07:48:54.339Z,95.40
2022-09-20T07:51:22.770Z,95.40
2022-09-20T07:53:55.473Z,95.30
2022-09-20T07:56:23.875Z,95.30
2022-09-20T07:58:52.745Z,95.40
2022-09-20T08:01:22.897Z,95.40
2022-09-20T08:03:52.050Z,95.40
2022-09-20T08:06:21.879Z,95.30
2022-09-20T08:08:51.612Z,95.30
2022-09-20T08:11:27.671Z,95.40
2022-09-20T08:14:13.095Z,95.30
2022-09-20T08:16:43.551Z,95.40
2022-09-20T08:19:17.102Z,95.40
2022-09-20T08:21:47.137Z,95.40
2022-09-20T08:24:16.453Z,95.40
2022-09-20T08:26:45.504Z,95.40
2022-09-20T08:29:15.239Z,95.40
2022-09-20T08:31:44.000Z,95.40
2022-09-20T08:34:15.200Z,95.40
2022-09-20T08:36:50.143Z,95.50
2022-09-20T08:42:14.638Z,95.40
2022-09-20T08:45:00.088Z,95.30
2022-09-20T08:47:32.128Z,95.30
2022-09-20T08:50:09.213Z,95.50
2022-09-20T08:52:40.690Z,95.40
2022-09-20T08:55:17.408Z,95.30
2022-09-20T08:57:50.308Z,95.40
2022-09-20T09:00:20.569Z,95.50
2022-09-20T09:02:51.540Z,95.40
2022-09-20T09:05:33.158Z,95.40
2022-09-20T09:08:07.590Z,95.40
2022-09-20T09:10:46.354Z,95.40
2022-09-20T09:13:25.574Z,95.40
2022-09-20T09:15:57.971Z,95.40
2022-09-20T09:18:34.845Z,95.40
2022-09-20T09:21:05.406Z,95.40
2022-09-20T09:23:42.910Z,95.40
2022-09-20T09:26:21.253Z,95.40
2022-09-20T09:29:09.854Z,95.40
2022-09-20T09:31:39.811Z,95.40
2022-09-20T09:34:25.179Z,95.40
2022-09-20T09:36:54.466Z,95.40
2022-09-20T09:39:27.888Z,95.40
2022-09-20T09:42:00.910Z,95.40
2022-09-20T09:44:32.702Z,95.30
2022-09-20T09:47:01.979Z,95.50
2022-09-20T09:49:36.187Z,95.40
2022-09-20T09:52:13.062Z,95.40
2022-09-20T09:54:48.875Z,95.40
2022-09-20T09:57:41.851Z,95.30
2022-09-20T10:00:19.958Z,95.50
2022-09-20T10:03:23.365Z,95.50
2022-09-20T10:06:08.629Z,95.50
2022-09-20T10:08:46.940Z,95.50
2022-09-20T10:11:30.351Z,95.40
2022-09-20T10:14:08.724Z,95.40
2022-09-20T10:16:53.340Z,95.40
2022-09-20T10:19:32.832Z,95.50
2022-09-20T10:22:09.461Z,95.40
2022-09-20T10:24:51.563Z,95.40
2022-09-20T10:27:35.046Z,95.40
2022-09-20T10:30:12.082Z,95.40
2022-09-20T10:32:55.273Z,95.50
2022-09-20T10:35:30.882Z,95.40
2022-09-20T10:38:14.288Z,95.40
2022-09-20T10:41:08.787Z,95.40
2022-09-20T10:43:52.957Z,95.40
2022-09-20T10:46:33.028Z,95.30
2022-09-20T10:49:11.961Z,95.40
2022-09-20T10:51:53.102Z,95.50
2022-09-20T10:54:35.641Z,95.30
2022-09-20T10:57:23.070Z,95.30
2022-09-20T11:00:00.686Z,95.30
2022-09-20T11:02:42.903Z,95.30
2022-09-20T11:05:26.998Z,95.30
2022-09-20T11:08:04.307Z,95.30
2022-09-20T11:10:37.728Z,95.30
2022-09-20T11:13:09.860Z,95.30
2022-09-20T11:15:45.630Z,95.30
2022-09-20T11:18:21.015Z,95.30
2022-09-20T11:20:57.510Z,95.30
2022-09-20T11:23:32.446Z,95.30
2022-09-20T11:26:08.315Z,95.30
2022-09-20T11:28:40.945Z,95.30
2022-09-20T11:31:15.583Z,95.30
2022-09-20T11:33:48.053Z,95.30
2022-09-20T11:36:22.275Z,95.20
2022-09-20T11:38:53.841Z,95.20
2022-09-20T11:41:27.193Z,95.20
2022-09-20T11:43:58.408Z,95.30
2022-09-20T11:46:31.454Z,95.30
2022-09-20T11:49:02.466Z,95.30
2022-09-20T11:52:03.346Z,95.20
2022-09-20T11:54:56.735Z,95.30
2022-09-20T11:57:25.763Z,95.30
2022-09-20T11:59:56.656Z,95.30
2022-09-20T12:02:32.788Z,95.30
2022-09-20T12:05:01.999Z,95.30
2022-09-20T12:07:36.168Z,95.30
2022-09-20T12:10:07.683Z,95.30
2022-09-20T12:12:39.834Z,95.30
2022-09-20T12:15:25.118Z,95.30
2022-09-20T12:18:16.453Z,95.30
2022-09-20T12:21:19.656Z,95.30
2022-09-20T12:24:18.119Z,95.40
2022-09-20T12:26:55.834Z,95.40
2022-09-20T12:30:16.086Z,95.30
2022-09-20T12:32:58.791Z,95.40
2022-09-20T12:35:59.275Z,95.40
2022-09-20T12:38:40.286Z,95.50
2022-09-20T12:41:12.163Z,95.30
2022-09-20T12:43:51.863Z,95.40
2022-09-20T12:46:27.663Z,95.50
2022-09-20T12:49:42.067Z,95.80
2022-09-20T12:52:47.184Z,95.50
2022-09-20T12:55:40.872Z,95.50
2022-09-20T12:58:27.995Z,95.50
2022-09-20T13:01:32.027Z,95.50
2022-09-20T13:04:37.814Z,95.50
2022-09-20T13:07:42.756Z,95.60
2022-09-20T13:10:30.477Z,95.60
2022-09-20T13:13:31.623Z,95.70
2022-09-20T13:16:01.214Z,95.70
2022-09-20T13:18:30.417Z,95.60
2022-09-20T13:21:06.431Z,95.70
2022-09-20T13:23:47.296Z,95.70
2022-09-20T13:26:16.678Z,95.70
2022-09-20T13:28:51.514Z,95.70
2022-09-20T13:31:27.830Z,95.70
2022-09-20T13:33:56.240Z,95.70
2022-09-20T13:36:31.637Z,95.60
2022-09-20T13:39:02.997Z,95.70
2022-09-20T13:41:32.543Z,95.80
2022-09-20T13:44:02.028Z,95.80
2022-09-20T13:46:31.929Z,95.70
2022-09-20T13:49:14.734Z,95.80
2022-09-20T13:51:42.977Z,95.70
2022-09-20T13:54:29.754Z,95.90
2022-09-20T13:57:01.896Z,95.30
2022-09-20T13:59:34.479Z,94.60
2022-09-20T14:02:03.871Z,94.80
2022-09-20T14:04:32.918Z,95.10
2022-09-20T14:07:02.048Z,95.60
2022-09-20T14:09:34.982Z,95.40
2022-09-20T14:12:05.640Z,95.40
2022-09-20T14:14:35.739Z,95.40
2022-09-20T14:17:07.372Z,95.40
2022-09-20T14:19:42.396Z,95.50
2022-09-20T14:22:19.435Z,95.50
2022-09-20T14:25:04.085Z,95.50
2022-09-20T14:27:32.715Z,95.50
2022-09-20T14:30:02.294Z,95.50
2022-09-20T14:32:40.200Z,95.60
2022-09-20T14:35:16.008Z,95.60
2022-09-20T14:37:46.242Z,95.60
2022-09-20T14:40:26.156Z,95.70
2022-09-20T14:42:59.258Z,95.60
2022-09-20T14:45:31.646Z,95.70
2022-09-20T14:48:10.089Z,95.70
2022-09-20T14:50:41.506Z,95.70
2022-09-20T14:53:26.609Z,95.70
2022-09-20T14:56:35.523Z,95.70
2022-09-20T14:59:06.791Z,95.70
2022-09-20T15:01:37.082Z,95.70
2022-09-20T15:04:10.379Z,95.80
2022-09-20T15:06:40.172Z,95.80
2022-09-20T15:09:10.630Z,95.80
2022-09-20T15:11:40.760Z,95.80
2022-09-20T15:14:09.156Z,95.70
2022-09-20T15:16:37.397Z,95.70
2022-09-20T15:19:06.056Z,95.80
2022-09-20T15:21:34.336Z,95.80
2022-09-20T15:24:02.937Z,95.70
2022-09-20T15:26:32.473Z,95.70
2022-09-20T15:29:02.006Z,95.80
2022-09-20T15:31:30.193Z,95.80
2022-09-20T15:33:58.393Z,95.80
2022-09-20T15:36:31.791Z,96.00
2022-09-20T15:39:00.295Z,95.90
2022-09-20T15:41:31.189Z,95.90
2022-09-20T15:44:01.593Z,96.00
2022-09-20T15:46:30.263Z,96.00
2022-09-20T15:49:00.261Z,96.00
2022-09-20T15:51:30.330Z,96.20
2022-09-20T15:54:00.075Z,95.90
2022-09-20T15:56:30.424Z,95.90
2022-09-20T15:59:02.036Z,95.90
2022-09-20T16:01:31.994Z,95.90
2022-09-20T16:04:01.023Z,95.90
2022-09-20T16:06:29.170Z,95.80
2022-09-20T16:08:57.300Z,95.80
2022-09-20T16:11:27.876Z,95.80
2022-09-20T16:13:57.509Z,95.70
2022-09-20T16:16:28.255Z,95.60
2022-09-20T16:19:14.223Z,95.70
2022-09-20T16:21:44.030Z,95.70
2022-09-20T16:24:13.436Z,95.60
2022-09-20T16:26:41.994Z,95.60
2022-09-20T16:29:11.658Z,95.60
2022-09-20T16:31:42.655Z,95.60
2022-09-20T16:34:16.842Z,95.60
2022-09-20T16:36:45.401Z,95.60
2022-09-20T16:39:15.766Z,95.50
2022-09-20T16:41:45.353Z,95.50
2022-09-20T16:44:13.957Z,95.50
2022-09-20T16:46:44.543Z,95.50
2022-09-20T16:49:14.184Z,95.50
2022-09-20T16:51:44.901Z,95.50
2022-09-20T16:54:14.239Z,95.40
2022-09-20T16:56:44.546Z,95.50
2022-09-20T16:59:13.989Z,95.40
2022-09-20T17:01:44.207Z,95.40
2022-09-20T17:04:14.050Z,95.40
2022-09-20T17:06:43.365Z,95.40
2022-09-20T17:09:11.991Z,95.30
2022-09-20T17:11:44.552Z,95.40
2022-09-20T17:14:13.307Z,95.40
2022-09-20T17:16:47.444Z,95.30
2022-09-20T17:19:18.262Z,95.30
2022-09-20T17:21:50.500Z,95.20
2022-09-20T17:24:19.918Z,95.40
2022-09-20T17:26:48.910Z,95.30
2022-09-20T17:29:18.902Z,95.30
2022-09-20T17:31:54.945Z,95.30
2022-09-20T17:34:25.385Z,95.20
2022-09-20T17:36:54.984Z,95.20
2022-09-20T17:39:23.528Z,95.20
2022-09-20T17:41:52.004Z,95.20
2022-09-20T17:44:20.530Z,95.20
2022-09-20T17:46:52.132Z,95.20
2022-09-20T17:49:21.906Z,95.10
2022-09-20T17:51:51.666Z,95.10
2022-09-20T17:54:20.195Z,95.10
2022-09-20T17:56:50.265Z,95.20
2022-09-20T17:59:20.381Z,95.00
2022-09-20T18:01:51.181Z,94.90
2022-09-20T18:04:20.799Z,95.20
2022-09-20T18:06:51.173Z,95.00
2022-09-20T18:09:21.582Z,95.00
2022-09-20T18:11:51.344Z,95.00
2022-09-20T18:14:22.617Z,95.00
2022-09-20T18:16:55.362Z,95.00
2022-09-20T18:19:23.581Z,95.00
2022-09-20T18:21:52.136Z,94.90
2022-09-20T18:24:20.332Z,94.90
2022-09-20T18:26:48.583Z,94.80
2022-09-20T18:29:18.125Z,94.70
2022-09-20T18:31:48.616Z,94.90
2022-09-20T18:34:19.808Z,94.80
2022-09-20T18:36:52.925Z,94.80
2022-09-20T18:39:23.030Z,94.80
2022-09-20T18:41:52.948Z,94.80
2022-09-20T18:44:21.982Z,94.80
2022-09-20T18:46:53.331Z,94.70
2022-09-20T18:49:23.191Z,94.80
2022-09-20T18:51:51.394Z,94.80
2022-09-20T18:54:19.662Z,94.80
2022-09-20T18:56:50.173Z,94.70
2022-09-20T18:59:19.933Z,94.70
2022-09-20T19:02:25.806Z,94.80
2022-09-20T19:05:25.259Z,94.70
2022-09-20T19:08:05.997Z,94.80
2022-09-20T19:10:42.565Z,94.70
2022-09-20T19:13:24.686Z,94.70
2022-09-20T19:16:12.904Z,94.60
2022-09-20T19:19:01.348Z,94.70
2022-09-20T19:21:42.338Z,94.70
2022-09-20T19:24:23.331Z,94.70
2022-09-20T19:26:53.631Z,94.70
2022-09-20T19:29:25.154Z,94.70
2022-09-20T19:31:55.605Z,94.70
2022-09-20T19:34:27.166Z,94.70
2022-09-20T19:37:18.413Z,94.70
2022-09-20T19:39:57.641Z,94.60
2022-09-20T19:42:35.884Z,94.70
2022-09-20T19:45:19.189Z,94.60
2022-09-20T19:47:54.862Z,94.60
2022-09-20T19:50:33.185Z,94.50
2022-09-20T19:53:04.104Z,94.70
2022-09-20T19:55:33.238Z,94.60
2022-09-20T19:58:02.041Z,94.60
2022-09-20T20:00:31.414Z,94.60
2022-09-20T20:03:00.435Z,94.60
2022-09-20T20:05:29.243Z,94.70
2022-09-20T20:08:15.158Z,94.60
2022-09-20T20:10:51.260Z,94.60
2022-09-20T20:13:46.539Z,94.50
2022-09-20T20:16:18.964Z,94.70
2022-09-20T20:19:06.279Z,94.60
2022-09-20T20:21:46.263Z,94.60
2022-09-20T20:24:25.823Z,94.50
2022-09-20T20:26:53.991Z,94.60
2022-09-20T20:29:22.270Z,94.50
2022-09-20T20:31:50.491Z,94.60
2022-09-20T20:34:20.487Z,94.80
2022-09-20T20:36:49.577Z,94.60
2022-09-20T20:39:19.118Z,94.50
2022-09-20T20:41:52.431Z,94.70
2022-09-20T20:44:20.756Z,94.40
2022-09-20T20:46:50.717Z,94.60
2022-09-20T20:49:18.878Z,94.60
2022-09-20T20:51:47.551Z,94.60
2022-09-20T20:54:16.086Z,94.40
2022-09-20T20:56:45.665Z,94.60
2022-09-20T20:59:15.771Z,94.50
2022-09-20T21:01:45.768Z,94.50
2022-09-20T21:04:15.221Z,94.40
2022-09-20T21:06:44.013Z,94.50
2022-09-20T21:09:13.461Z,94.80
2022-09-20T21:11:44.154Z,94.40
2022-09-20T21:14:13.966Z,94.40
2022-09-20T21:16:43.847Z,94.30
2022-09-20T21:19:15.034Z,94.40
2022-09-20T21:21:44.802Z,94.40
2022-09-20T21:24:15.218Z,94.40
2022-09-20T21:26:43.751Z,94.30
2022-09-20T21:29:14.841Z,94.30
2022-09-20T21:31:44.673Z,94.40
2022-09-20T21:34:15.281Z,94.40
2022-09-20T21:36:44.618Z,94.40
2022-09-20T21:39:13.667Z,94.30
2022-09-20T21:41:42.209Z,94.30
2022-09-20T21:44:12.087Z,94.30
2022-09-20T21:46:42.804Z,94.40
2022-09-20T21:49:12.329Z,94.40
2022-09-20T21:51:42.029Z,94.30
2022-09-20T21:54:10.995Z,94.30
2022-09-20T21:56:40.772Z,94.20
2022-09-20T21:59:09.454Z,94.30
2022-09-20T22:01:41.150Z,94.30
2022-09-20T22:04:12.634Z,94.30
2022-09-20T22:06:42.087Z,94.20
2022-09-20T22:09:11.756Z,94.30
2022-09-20T22:11:41.629Z,94.20
2022-09-20T22:14:10.873Z,94.30
2022-09-20T22:16:40.365Z,94.20
2022-09-20T22:19:12.161Z,94.30
2022-09-20T22:21:42.810Z,94.20
2022-09-20T22:24:12.841Z,94.20
2022-09-20T22:26:42.825Z,94.20
2022-09-20T22:29:11.603Z,94.30
2022-09-20T22:31:44.843Z,94.20
2022-09-20T22:34:16.078Z,94.30
2022-09-20T22:36:44.999Z,94.20
2022-09-20T22:39:14.384Z,94.30
2022-09-20T22:41:43.089Z,94.20
2022-09-20T22:44:12.023Z,94.20
2022-09-20T22:46:41.151Z,94.20
2022-09-20T22:49:10.192Z,94.20
2022-09-20T22:51:39.882Z,94.20
2022-09-20T22:54:09.584Z,94.20
2022-09-20T22:56:39.343Z,94.10
2022-09-20T22:59:09.165Z,94.20
2022-09-20T23:01:39.576Z,94.20
2022-09-20T23:04:09.567Z,94.20
2022-09-20T23:06:41.538Z,94.20
2022-09-20T23:09:11.661Z,94.20
2022-09-20T23:11:41.958Z,94.10
2022-09-20T23:14:12.999Z,94.10
2022-09-20T23:16:41.612Z,94.20
2022-09-20T23:19:11.020Z,94.10
2022-09-20T23:21:42.330Z,94.10
2022-09-20T23:24:12.846Z,94.10
2022-09-20T23:26:42.210Z,94.10
2022-09-20T23:29:12.309Z,94.10
2022-09-20T23:31:45.598Z,94.10
2022-09-20T23:34:15.610Z,94.10
2022-09-20T23:36:46.148Z,94.10
2022-09-20T23:39:14.964Z,94.10
2022-09-20T23:41:46.979Z,94.10
2022-09-20T23:44:18.343Z,94.10
2022-09-20T23:46:46.533Z,94.10
2022-09-20T23:49:14.697Z,94.10
2022-09-20T23:51:44.226Z,94.10
2022-09-20T23:54:12.388Z,94.10
2022-09-20T23:56:42.725Z,94.10
2022-09-20T23:59:10.965Z,94.10
